sensor_id;sensor_type;location;lat;lon;timestamp;pressure;altitude;pressure_sealevel;temperature;humidity
75317;BME280;63913;51.492;10.368;2023-06-10T00:00:44;98388.66;;;19.28;51.17
75317;BME280;63913;51.492;10.368;2023-06-10T00:03:10;98388.72;;;19.22;51.19
75317;BME280;63913;51.492;10.368;2023-06-10T00:05:36;98387.03;;;19.21;51.39
75317;BME280;63913;51.492;10.368;2023-06-10T00:08:05;98389.56;;;19.24;51.25
75317;BME280;63913;51.492;10.368;2023-06-10T00:10:34;98386.09;;;19.25;51.04
75317;BME280;63913;51.492;10.368;2023-06-10T00:13:04;98387.81;;;19.26;51.53
75317;BME280;63913;51.492;10.368;2023-06-10T00:15:30;98387.06;;;19.19;51.62
75317;BME280;63913;51.492;10.368;2023-06-10T00:17:55;98387.84;;;19.24;51.46
75317;BME280;63913;51.492;10.368;2023-06-10T00:20:21;98378.34;;;19.20;51.37
75317;BME280;63913;51.492;10.368;2023-06-10T00:22:51;98381.78;;;19.22;51.03
75317;BME280;63913;51.492;10.368;2023-06-10T00:25:16;98384.47;;;19.18;51.53
75317;BME280;63913;51.492;10.368;2023-06-10T00:27:42;98385.47;;;19.08;52.10
75317;BME280;63913;51.492;10.368;2023-06-10T00:30:08;98380.31;;;19.03;51.97
75317;BME280;63913;51.492;10.368;2023-06-10T00:32:34;98383.78;;;19.03;52.23
75317;BME280;63913;51.492;10.368;2023-06-10T00:35:02;98383.03;;;18.95;52.63
75317;BME280;63913;51.492;10.368;2023-06-10T00:37:27;98375.25;;;18.92;53.51
75317;BME280;63913;51.492;10.368;2023-06-10T00:39:54;98381.34;;;18.90;52.66
75317;BME280;63913;51.492;10.368;2023-06-10T00:42:19;98369.13;;;18.95;52.52
75317;BME280;63913;51.492;10.368;2023-06-10T00:44:44;98377.81;;;18.95;52.64
75317;BME280;63913;51.492;10.368;2023-06-10T00:47:10;98375.25;;;18.92;53.13
75317;BME280;63913;51.492;10.368;2023-06-10T00:49:36;98377.09;;;18.84;52.77
75317;BME280;63913;51.492;10.368;2023-06-10T00:52:03;98377.13;;;18.81;53.17
75317;BME280;63913;51.492;10.368;2023-06-10T00:54:29;98377.97;;;18.82;52.89
75317;BME280;63913;51.492;10.368;2023-06-10T00:56:55;98372.84;;;18.77;53.56
75317;BME280;63913;51.492;10.368;2023-06-10T00:59:21;98380.72;;;18.71;54.30
75317;BME280;63913;51.492;10.368;2023-06-10T01:01:47;98372.09;;;18.67;53.13
75317;BME280;63913;51.492;10.368;2023-06-10T01:04:13;98375.56;;;18.66;54.50
75317;BME280;63913;51.492;10.368;2023-06-10T01:07:00;98379.16;;;18.55;54.50
75317;BME280;63913;51.492;10.368;2023-06-10T01:09:35;98380.91;;;18.54;54.53
75317;BME280;63913;51.492;10.368;2023-06-10T01:12:10;98382.63;;;18.54;54.91
75317;BME280;63913;51.492;10.368;2023-06-10T01:14:37;98376.66;;;18.46;55.07
75317;BME280;63913;51.492;10.368;2023-06-10T01:17:04;98374.25;;;18.26;55.79
75317;BME280;63913;51.492;10.368;2023-06-10T01:19:30;98371.59;;;18.32;55.30
75317;BME280;63913;51.492;10.368;2023-06-10T01:21:56;98374.31;;;18.21;55.49
75317;BME280;63913;51.492;10.368;2023-06-10T01:24:28;98376.03;;;18.24;54.45
75317;BME280;63913;51.492;10.368;2023-06-10T01:26:55;98374.22;;;18.30;54.21
75317;BME280;63913;51.492;10.368;2023-06-10T01:29:30;98367.28;;;18.31;53.68
75317;BME280;63913;51.492;10.368;2023-06-10T01:32:04;98377.72;;;18.28;53.63
75317;BME280;63913;51.492;10.368;2023-06-10T01:34:32;98381.97;;;18.35;52.74
75317;BME280;63913;51.492;10.368;2023-06-10T01:36:58;98374.13;;;18.40;52.25
75317;BME280;63913;51.492;10.368;2023-06-10T01:39:25;98382.81;;;18.39;52.74
75317;BME280;63913;51.492;10.368;2023-06-10T01:41:52;98379.38;;;18.35;51.88
75317;BME280;63913;51.492;10.368;2023-06-10T01:44:22;98388.00;;;18.39;51.66
75317;BME280;63913;51.492;10.368;2023-06-10T01:46:47;98378.47;;;18.38;51.80
75317;BME280;63913;51.492;10.368;2023-06-10T01:49:12;98379.34;;;18.40;51.03
75317;BME280;63913;51.492;10.368;2023-06-10T01:51:38;98382.81;;;18.40;51.18
75317;BME280;63913;51.492;10.368;2023-06-10T01:54:06;98383.69;;;18.36;51.29
75317;BME280;63913;51.492;10.368;2023-06-10T01:56:32;98384.63;;;18.30;52.25
75317;BME280;63913;51.492;10.368;2023-06-10T01:58:57;98382.06;;;18.24;52.96
75317;BME280;63913;51.492;10.368;2023-06-10T02:01:27;98383.88;;;18.19;53.40
75317;BME280;63913;51.492;10.368;2023-06-10T02:03:53;98390.09;;;18.03;54.95
75317;BME280;63913;51.492;10.368;2023-06-10T02:06:18;98391.97;;;17.89;55.64
75317;BME280;63913;51.492;10.368;2023-06-10T02:08:44;98400.00;;;17.55;56.19
75317;BME280;63913;51.492;10.368;2023-06-10T02:11:09;98387.94;;;17.45;56.73
75317;BME280;63913;51.492;10.368;2023-06-10T02:13:34;98388.84;;;17.38;56.65
75317;BME280;63913;51.492;10.368;2023-06-10T02:16:00;98389.72;;;17.36;57.00
75317;BME280;63913;51.492;10.368;2023-06-10T02:18:28;98399.25;;;17.41;56.25
75317;BME280;63913;51.492;10.368;2023-06-10T02:20:54;98393.25;;;17.29;56.94
75317;BME280;63913;51.492;10.368;2023-06-10T02:23:19;98395.06;;;17.14;56.80
75317;BME280;63913;51.492;10.368;2023-06-10T02:25:45;98401.94;;;17.20;56.78
75317;BME280;63913;51.492;10.368;2023-06-10T02:28:10;98408.00;;;17.19;57.19
75317;BME280;63913;51.492;10.368;2023-06-10T02:30:39;98410.72;;;17.02;57.04
75317;BME280;63913;51.492;10.368;2023-06-10T02:33:04;98412.50;;;16.93;57.94
75317;BME280;63913;51.492;10.368;2023-06-10T02:35:30;98415.19;;;16.68;58.60
75317;BME280;63913;51.492;10.368;2023-06-10T02:37:55;98413.47;;;16.64;58.27
75317;BME280;63913;51.492;10.368;2023-06-10T02:40:21;98419.50;;;16.77;57.88
75317;BME280;63913;51.492;10.368;2023-06-10T02:42:47;98421.19;;;16.79;57.37
75317;BME280;63913;51.492;10.368;2023-06-10T02:45:12;98426.44;;;16.66;58.24
75317;BME280;63913;51.492;10.368;2023-06-10T02:47:41;98436.00;;;16.46;59.53
75317;BME280;63913;51.492;10.368;2023-06-10T02:50:08;98439.47;;;16.31;60.30
75317;BME280;63913;51.492;10.368;2023-06-10T02:52:39;98430.81;;;16.32;59.92
75317;BME280;63913;51.492;10.368;2023-06-10T02:55:05;98436.84;;;16.43;60.01
75317;BME280;63913;51.492;10.368;2023-06-10T02:57:31;98439.44;;;16.40;59.50
75317;BME280;63913;51.492;10.368;2023-06-10T02:59:57;98435.16;;;16.34;59.38
75317;BME280;63913;51.492;10.368;2023-06-10T03:02:24;98429.09;;;16.23;59.59
75317;BME280;63913;51.492;10.368;2023-06-10T03:04:56;98422.19;;;16.24;59.59
75317;BME280;63913;51.492;10.368;2023-06-10T03:07:22;98416.16;;;16.13;59.77
75317;BME280;63913;51.492;10.368;2023-06-10T03:09:50;98421.34;;;16.07;60.41
75317;BME280;63913;51.492;10.368;2023-06-10T03:12:16;98418.75;;;16.00;60.59
75317;BME280;63913;51.492;10.368;2023-06-10T03:14:45;98417.91;;;15.86;61.23
75317;BME280;63913;51.492;10.368;2023-06-10T03:17:10;98416.16;;;15.78;61.43
75317;BME280;63913;51.492;10.368;2023-06-10T03:19:38;98420.47;;;15.68;61.77
75317;BME280;63913;51.492;10.368;2023-06-10T03:22:09;98423.06;;;15.82;61.48
75317;BME280;63913;51.492;10.368;2023-06-10T03:24:38;98426.53;;;15.82;61.25
75317;BME280;63913;51.492;10.368;2023-06-10T03:27:10;98426.53;;;15.70;61.79
75317;BME280;63913;51.492;10.368;2023-06-10T03:29:37;98423.94;;;15.75;61.55
75317;BME280;63913;51.492;10.368;2023-06-10T03:32:04;98433.47;;;15.79;61.40
75317;BME280;63913;51.492;10.368;2023-06-10T03:34:29;98437.75;;;15.63;62.36
75317;BME280;63913;51.492;10.368;2023-06-10T03:36:58;98428.25;;;15.68;62.22
75317;BME280;63913;51.492;10.368;2023-06-10T03:39:24;98431.69;;;15.73;61.45
75317;BME280;63913;51.492;10.368;2023-06-10T03:41:50;98430.00;;;15.72;61.36
75317;BME280;63913;51.492;10.368;2023-06-10T03:44:15;98431.72;;;15.78;61.03
75317;BME280;63913;51.492;10.368;2023-06-10T03:46:41;98429.13;;;15.69;61.43
75317;BME280;63913;51.492;10.368;2023-06-10T03:49:07;98433.44;;;15.60;62.09
75317;BME280;63913;51.492;10.368;2023-06-10T03:51:33;98437.69;;;15.49;62.68
75317;BME280;63913;51.492;10.368;2023-06-10T03:53:58;98441.16;;;15.50;62.97
75317;BME280;63913;51.492;10.368;2023-06-10T03:56:24;98434.25;;;15.52;62.96
75317;BME280;63913;51.492;10.368;2023-06-10T03:58:51;98441.22;;;15.71;62.39
75317;BME280;63913;51.492;10.368;2023-06-10T04:01:17;98437.75;;;15.54;62.93
75317;BME280;63913;51.492;10.368;2023-06-10T04:03:46;98435.16;;;15.61;62.76
75317;BME280;63913;51.492;10.368;2023-06-10T04:06:13;98438.59;;;15.59;62.97
75317;BME280;63913;51.492;10.368;2023-06-10T04:08:39;98436.00;;;15.65;63.03
75317;BME280;63913;51.492;10.368;2023-06-10T04:11:04;98436.03;;;15.63;63.04
75317;BME280;63913;51.492;10.368;2023-06-10T04:13:29;98434.28;;;15.65;63.21
75317;BME280;63913;51.492;10.368;2023-06-10T04:15:57;98435.16;;;15.68;63.08
75317;BME280;63913;51.492;10.368;2023-06-10T04:18:24;98434.31;;;15.75;62.93
75317;BME280;63913;51.492;10.368;2023-06-10T04:20:53;98434.31;;;15.64;63.78
75317;BME280;63913;51.492;10.368;2023-06-10T04:23:19;98432.56;;;15.66;63.84
75317;BME280;63913;51.492;10.368;2023-06-10T04:25:45;98435.16;;;15.55;64.10
75317;BME280;63913;51.492;10.368;2023-06-10T04:28:11;98432.56;;;15.55;64.14
75317;BME280;63913;51.492;10.368;2023-06-10T04:30:36;98429.06;;;15.49;64.43
75317;BME280;63913;51.492;10.368;2023-06-10T04:33:02;98437.75;;;15.60;64.20
75317;BME280;63913;51.492;10.368;2023-06-10T04:35:28;98429.97;;;15.61;64.42
75317;BME280;63913;51.492;10.368;2023-06-10T04:37:55;98439.47;;;15.73;63.94
75317;BME280;63913;51.492;10.368;2023-06-10T04:40:20;98441.22;;;15.74;64.03
75317;BME280;63913;51.492;10.368;2023-06-10T04:42:46;98436.91;;;15.84;64.14
75317;BME280;63913;51.492;10.368;2023-06-10T04:45:12;98441.22;;;15.79;64.36
75317;BME280;63913;51.492;10.368;2023-06-10T04:47:38;98438.63;;;15.76;64.97
75317;BME280;63913;51.492;10.368;2023-06-10T04:50:05;98448.13;;;15.81;64.86
75317;BME280;63913;51.492;10.368;2023-06-10T04:52:30;98441.22;;;15.83;65.10
75317;BME280;63913;51.492;10.368;2023-06-10T04:54:57;98446.41;;;15.92;65.01
75317;BME280;63913;51.492;10.368;2023-06-10T04:57:23;98442.09;;;15.91;64.98
75317;BME280;63913;51.492;10.368;2023-06-10T04:59:48;98435.19;;;15.92;64.64
75317;BME280;63913;51.492;10.368;2023-06-10T05:02:14;98431.72;;;16.07;64.29
75317;BME280;63913;51.492;10.368;2023-06-10T05:04:39;98436.06;;;16.05;65.23
75317;BME280;63913;51.492;10.368;2023-06-10T05:07:05;98442.09;;;16.07;64.99
75317;BME280;63913;51.492;10.368;2023-06-10T05:09:30;98442.09;;;16.13;65.07
75317;BME280;63913;51.492;10.368;2023-06-10T05:11:56;98449.00;;;16.18;65.07
75317;BME280;63913;51.492;10.368;2023-06-10T05:14:21;98446.41;;;16.24;65.08
75317;BME280;63913;51.492;10.368;2023-06-10T05:16:50;98454.19;;;16.24;65.32
75317;BME280;63913;51.492;10.368;2023-06-10T05:19:15;98453.28;;;16.42;65.27
75317;BME280;63913;51.492;10.368;2023-06-10T05:21:44;98447.22;;;16.38;65.34
75317;BME280;63913;51.492;10.368;2023-06-10T05:24:10;98447.22;;;16.49;64.77
75317;BME280;63913;51.492;10.368;2023-06-10T05:26:36;98442.03;;;16.52;64.69
75317;BME280;63913;51.492;10.368;2023-06-10T05:29:05;98452.44;;;16.61;64.30
75317;BME280;63913;51.492;10.368;2023-06-10T05:31:31;98466.25;;;16.59;65.44
75317;BME280;63913;51.492;10.368;2023-06-10T05:33:57;98449.81;;;16.63;65.05
75317;BME280;63913;51.492;10.368;2023-06-10T05:36:22;98456.75;;;16.68;64.85
75317;BME280;63913;51.492;10.368;2023-06-10T05:38:50;98463.66;;;16.68;63.91
75317;BME280;63913;51.492;10.368;2023-06-10T05:41:15;98458.44;;;16.74;62.87
75317;BME280;63913;51.492;10.368;2023-06-10T05:43:41;98466.25;;;16.77;63.15
75317;BME280;63913;51.492;10.368;2023-06-10T05:46:06;98457.56;;;16.81;62.76
75317;BME280;63913;51.492;10.368;2023-06-10T05:48:31;98463.59;;;16.88;62.58
75317;BME280;63913;51.492;10.368;2023-06-10T05:50:57;98456.66;;;16.94;62.81
75317;BME280;63913;51.492;10.368;2023-06-10T05:53:22;98461.81;;;16.96;63.00
75317;BME280;63913;51.492;10.368;2023-06-10T05:55:47;98459.22;;;16.99;62.65
75317;BME280;63913;51.492;10.368;2023-06-10T05:58:14;98456.59;;;17.03;62.51
75317;BME280;63913;51.492;10.368;2023-06-10T06:00:39;98460.06;;;17.07;62.86
75317;BME280;63913;51.492;10.368;2023-06-10T06:03:09;98459.16;;;17.11;62.60
75317;BME280;63913;51.492;10.368;2023-06-10T06:05:35;98460.91;;;17.10;62.45
75317;BME280;63913;51.492;10.368;2023-06-10T06:08:06;98464.34;;;17.12;62.91
75317;BME280;63913;51.492;10.368;2023-06-10T06:10:32;98465.22;;;17.16;63.13
75317;BME280;63913;51.492;10.368;2023-06-10T06:12:57;98457.38;;;17.19;63.09
75317;BME280;63913;51.492;10.368;2023-06-10T06:15:22;98463.44;;;17.23;63.21
75317;BME280;63913;51.492;10.368;2023-06-10T06:17:48;98450.44;;;17.26;62.78
75317;BME280;63913;51.492;10.368;2023-06-10T06:20:13;98459.94;;;17.28;63.12
75317;BME280;63913;51.492;10.368;2023-06-10T06:22:38;98459.94;;;17.31;63.01
75317;BME280;63913;51.492;10.368;2023-06-10T06:25:04;98467.69;;;17.39;62.82
75317;BME280;63913;51.492;10.368;2023-06-10T06:27:31;98472.88;;;17.42;62.83
75317;BME280;63913;51.492;10.368;2023-06-10T06:29:56;98463.31;;;17.44;62.71
75317;BME280;63913;51.492;10.368;2023-06-10T06:32:21;98466.78;;;17.49;62.90
75317;BME280;63913;51.492;10.368;2023-06-10T06:34:48;98466.72;;;17.55;63.15
75317;BME280;63913;51.492;10.368;2023-06-10T06:37:14;98468.41;;;17.61;62.51
75317;BME280;63913;51.492;10.368;2023-06-10T06:39:42;98466.72;;;17.66;62.68
75317;BME280;63913;51.492;10.368;2023-06-10T06:42:07;98470.13;;;17.74;62.51
75317;BME280;63913;51.492;10.368;2023-06-10T06:44:48;98467.47;;;17.77;62.56
75317;BME280;63913;51.492;10.368;2023-06-10T06:47:14;98474.41;;;17.82;61.67
75317;BME280;63913;51.492;10.368;2023-06-10T06:49:39;98476.91;;;17.93;61.91
75317;BME280;63913;51.492;10.368;2023-06-10T06:52:05;98475.16;;;17.98;62.26
75317;BME280;63913;51.492;10.368;2023-06-10T06:54:31;98483.78;;;18.03;61.42
75317;BME280;63913;51.492;10.368;2023-06-10T06:56:56;98478.50;;;18.09;61.32
75317;BME280;63913;51.492;10.368;2023-06-10T06:59:22;98478.44;;;18.20;59.20
75317;BME280;63913;51.492;10.368;2023-06-10T07:01:48;98487.84;;;18.33;57.79
75317;BME280;63913;51.492;10.368;2023-06-10T07:04:15;98492.09;;;18.42;58.38
75317;BME280;63913;51.492;10.368;2023-06-10T07:06:40;98501.63;;;18.47;58.81
75317;BME280;63913;51.492;10.368;2023-06-10T07:09:07;98495.47;;;18.54;59.13
75317;BME280;63913;51.492;10.368;2023-06-10T07:11:34;98491.09;;;18.61;57.44
75317;BME280;63913;51.492;10.368;2023-06-10T07:13:59;98493.63;;;18.68;57.68
75317;BME280;63913;51.492;10.368;2023-06-10T07:16:24;98494.41;;;18.77;57.27
75317;BME280;63913;51.492;10.368;2023-06-10T07:18:50;98487.38;;;18.83;57.28
75317;BME280;63913;51.492;10.368;2023-06-10T07:21:15;98489.91;;;18.91;57.23
75317;BME280;63913;51.492;10.368;2023-06-10T07:23:43;98483.72;;;18.99;57.97
75317;BME280;63913;51.492;10.368;2023-06-10T07:26:10;98488.03;;;19.05;57.87
75317;BME280;63913;51.492;10.368;2023-06-10T07:28:42;98486.19;;;19.13;58.01
75317;BME280;63913;51.492;10.368;2023-06-10T07:31:08;98490.44;;;19.20;58.47
75317;BME280;63913;51.492;10.368;2023-06-10T07:33:33;98492.09;;;19.26;58.06
75317;BME280;63913;51.492;10.368;2023-06-10T07:35:59;98486.81;;;19.30;58.53
75317;BME280;63913;51.492;10.368;2023-06-10T07:38:25;98484.09;;;19.38;58.86
75317;BME280;63913;51.492;10.368;2023-06-10T07:40:51;98494.47;;;19.44;58.45
75317;BME280;63913;51.492;10.368;2023-06-10T07:43:16;98487.47;;;19.46;58.89
75317;BME280;63913;51.492;10.368;2023-06-10T07:45:42;98482.22;;;19.54;59.11
75317;BME280;63913;51.492;10.368;2023-06-10T07:48:08;98487.38;;;19.55;58.57
75317;BME280;63913;51.492;10.368;2023-06-10T07:50:33;98480.38;;;19.60;59.16
75317;BME280;63913;51.492;10.368;2023-06-10T07:52:58;98486.34;;;19.68;59.30
75317;BME280;63913;51.492;10.368;2023-06-10T07:55:24;98485.38;;;19.74;58.93
75317;BME280;63913;51.492;10.368;2023-06-10T07:57:51;98475.75;;;19.79;59.52
75317;BME280;63913;51.492;10.368;2023-06-10T08:00:17;98482.63;;;19.86;59.25
75317;BME280;63913;51.492;10.368;2023-06-10T08:02:44;98475.53;;;19.94;59.19
75317;BME280;63913;51.492;10.368;2023-06-10T08:05:09;98490.25;;;19.98;58.75
75317;BME280;63913;51.492;10.368;2023-06-10T08:07:35;98483.25;;;20.00;58.88
75317;BME280;63913;51.492;10.368;2023-06-10T08:10:00;98481.38;;;20.10;58.49
75317;BME280;63913;51.492;10.368;2023-06-10T08:12:26;98482.03;;;20.21;58.76
75317;BME280;63913;51.492;10.368;2023-06-10T08:14:52;98481.13;;;20.25;58.12
75317;BME280;63913;51.492;10.368;2023-06-10T08:17:17;98483.59;;;20.34;57.71
75317;BME280;63913;51.492;10.368;2023-06-10T08:19:42;98482.50;;;20.47;58.47
75317;BME280;63913;51.492;10.368;2023-06-10T08:22:08;98488.31;;;20.62;56.41
75317;BME280;63913;51.492;10.368;2023-06-10T08:24:33;98481.16;;;20.73;57.67
75317;BME280;63913;51.492;10.368;2023-06-10T08:26:58;98482.53;;;20.92;56.71
75317;BME280;63913;51.492;10.368;2023-06-10T08:29:25;98485.66;;;21.09;56.46
75317;BME280;63913;51.492;10.368;2023-06-10T08:31:50;98473.09;;;21.29;56.24
75317;BME280;63913;51.492;10.368;2023-06-10T08:34:16;98483.06;;;21.52;55.46
75317;BME280;63913;51.492;10.368;2023-06-10T08:36:42;98481.50;;;21.82;54.95
75317;BME280;63913;51.492;10.368;2023-06-10T08:39:08;98482.81;;;22.03;54.87
75317;BME280;63913;51.492;10.368;2023-06-10T08:41:36;98481.34;;;22.27;53.62
75317;BME280;63913;51.492;10.368;2023-06-10T08:44:17;98491.22;;;22.50;53.40
75317;BME280;63913;51.492;10.368;2023-06-10T08:46:45;98470.72;;;22.65;52.24
75317;BME280;63913;51.492;10.368;2023-06-10T08:49:17;98476.44;;;22.81;52.59
75317;BME280;63913;51.492;10.368;2023-06-10T08:51:43;98477.72;;;22.99;52.55
75317;BME280;63913;51.492;10.368;2023-06-10T08:54:16;98473.59;;;23.19;52.34
75317;BME280;63913;51.492;10.368;2023-06-10T08:56:45;98475.75;;;23.36;52.18
75317;BME280;63913;51.492;10.368;2023-06-10T08:59:13;98470.81;;;23.56;50.65
75317;BME280;63913;51.492;10.368;2023-06-10T09:01:39;98471.31;;;23.68;51.36
75317;BME280;63913;51.492;10.368;2023-06-10T09:04:05;98472.50;;;23.85;51.44
75317;BME280;63913;51.492;10.368;2023-06-10T09:06:32;98476.66;;;23.92;50.89
75317;BME280;63913;51.492;10.368;2023-06-10T09:08:59;98475.34;;;24.07;51.12
75317;BME280;63913;51.492;10.368;2023-06-10T09:11:24;98473.41;;;24.12;51.32
75317;BME280;63913;51.492;10.368;2023-06-10T09:13:50;98473.84;;;24.26;50.28
75317;BME280;63913;51.492;10.368;2023-06-10T09:16:16;98465.75;;;24.32;49.47
75317;BME280;63913;51.492;10.368;2023-06-10T09:18:42;98468.97;;;24.41;48.96
75317;BME280;63913;51.492;10.368;2023-06-10T09:21:08;98470.69;;;24.42;49.40
75317;BME280;63913;51.492;10.368;2023-06-10T09:23:33;98469.47;;;24.52;49.72
75317;BME280;63913;51.492;10.368;2023-06-10T09:25:59;98464.84;;;24.58;49.67
75317;BME280;63913;51.492;10.368;2023-06-10T09:28:25;98470.94;;;24.60;49.33
75317;BME280;63913;51.492;10.368;2023-06-10T09:31:02;98464.41;;;24.72;49.00
75317;BME280;63913;51.492;10.368;2023-06-10T09:33:27;98456.25;;;24.80;48.76
75317;BME280;63913;51.492;10.368;2023-06-10T09:35:53;98456.75;;;24.89;47.34
75317;BME280;63913;51.492;10.368;2023-06-10T09:38:21;98461.84;;;24.95;48.12
75317;BME280;63913;51.492;10.368;2023-06-10T09:40:50;98458.13;;;25.01;47.65
75317;BME280;63913;51.492;10.368;2023-06-10T09:43:16;98458.78;;;25.06;48.25
75317;BME280;63913;51.492;10.368;2023-06-10T09:45:42;98458.59;;;25.12;47.58
75317;BME280;63913;51.492;10.368;2023-06-10T09:48:08;98462.75;;;25.18;47.42
75317;BME280;63913;51.492;10.368;2023-06-10T09:50:34;98460.03;;;25.21;46.54
75317;BME280;63913;51.492;10.368;2023-06-10T09:53:00;98457.09;;;25.28;46.63
75317;BME280;63913;51.492;10.368;2023-06-10T09:55:28;98459.44;;;25.36;45.87
75317;BME280;63913;51.492;10.368;2023-06-10T09:57:54;98453.13;;;25.40;45.67
75317;BME280;63913;51.492;10.368;2023-06-10T10:00:22;98454.75;;;25.44;44.60
75317;BME280;63913;51.492;10.368;2023-06-10T10:02:49;98449.34;;;25.47;46.16
75317;BME280;63913;51.492;10.368;2023-06-10T10:05:16;98458.16;;;25.46;44.73
75317;BME280;63913;51.492;10.368;2023-06-10T10:07:42;98453.94;;;25.42;46.14
75317;BME280;63913;51.492;10.368;2023-06-10T10:10:08;98454.31;;;25.55;48.33
75317;BME280;63913;51.492;10.368;2023-06-10T10:12:35;98458.41;;;25.63;44.63
75317;BME280;63913;51.492;10.368;2023-06-10T10:15:02;98455.16;;;25.78;44.63
75317;BME280;63913;51.492;10.368;2023-06-10T10:17:27;98457.13;;;25.73;45.13
75317;BME280;63913;51.492;10.368;2023-06-10T10:20:03;98463.16;;;25.77;44.81
75317;BME280;63913;51.492;10.368;2023-06-10T10:22:35;98457.53;;;25.86;43.20
75317;BME280;63913;51.492;10.368;2023-06-10T10:25:05;98460.75;;;25.93;44.41
75317;BME280;63913;51.492;10.368;2023-06-10T10:27:36;98460.41;;;26.02;42.61
75317;BME280;63913;51.492;10.368;2023-06-10T10:30:06;98459.84;;;25.94;43.58
75317;BME280;63913;51.492;10.368;2023-06-10T10:32:38;98459.69;;;25.97;44.21
75317;BME280;63913;51.492;10.368;2023-06-10T10:35:09;98461.16;;;26.04;43.66
75317;BME280;63913;51.492;10.368;2023-06-10T10:37:37;98458.34;;;26.08;42.89
75317;BME280;63913;51.492;10.368;2023-06-10T10:40:03;98457.44;;;26.09;43.68
75317;BME280;63913;51.492;10.368;2023-06-10T10:42:30;98445.13;;;26.10;43.43
75317;BME280;63913;51.492;10.368;2023-06-10T10:44:56;98453.81;;;26.12;42.95
75317;BME280;63913;51.492;10.368;2023-06-10T10:47:22;98451.72;;;26.20;43.24
75317;BME280;63913;51.492;10.368;2023-06-10T10:49:51;98452.38;;;26.27;43.43
75317;BME280;63913;51.492;10.368;2023-06-10T10:52:20;98440.09;;;26.26;41.79
75317;BME280;63913;51.492;10.368;2023-06-10T10:54:46;98452.16;;;26.31;42.57
75317;BME280;63913;51.492;10.368;2023-06-10T10:57:17;98441.16;;;26.42;42.16
75317;BME280;63913;51.492;10.368;2023-06-10T10:59:54;98441.03;;;26.45;42.38
75317;BME280;63913;51.492;10.368;2023-06-10T11:02:36;98437.63;;;26.43;42.88
75317;BME280;63913;51.492;10.368;2023-06-10T11:05:04;98437.88;;;26.57;41.92
75317;BME280;63913;51.492;10.368;2023-06-10T11:07:32;98445.19;;;26.71;41.01
75317;BME280;63913;51.492;10.368;2023-06-10T11:10:01;98443.00;;;26.80;40.59
75317;BME280;63913;51.492;10.368;2023-06-10T11:15:23;98436.59;;;26.86;39.87
75317;BME280;63913;51.492;10.368;2023-06-10T11:18:06;98429.38;;;26.91;40.65
75317;BME280;63913;51.492;10.368;2023-06-10T11:23:25;98438.31;;;27.07;41.07
75317;BME280;63913;51.492;10.368;2023-06-10T11:25:51;98426.69;;;27.11;40.86
75317;BME280;63913;51.492;10.368;2023-06-10T11:28:19;98423.97;;;27.13;40.83
75317;BME280;63913;51.492;10.368;2023-06-10T11:30:45;98419.25;;;27.19;40.93
75317;BME280;63913;51.492;10.368;2023-06-10T11:33:16;98432.28;;;27.24;39.80
75317;BME280;63913;51.492;10.368;2023-06-10T11:35:42;98426.16;;;27.41;40.05
75317;BME280;63913;51.492;10.368;2023-06-10T11:38:07;98426.09;;;27.42;39.70
75317;BME280;63913;51.492;10.368;2023-06-10T11:40:33;98421.31;;;27.50;40.07
75317;BME280;63913;51.492;10.368;2023-06-10T11:43:00;98418.91;;;27.46;38.97
75317;BME280;63913;51.492;10.368;2023-06-10T11:45:26;98419.28;;;27.57;38.43
75317;BME280;63913;51.492;10.368;2023-06-10T11:47:56;98426.06;;;27.62;38.62
75317;BME280;63913;51.492;10.368;2023-06-10T11:50:32;98422.94;;;27.54;38.26
75317;BME280;63913;51.492;10.368;2023-06-10T11:52:58;98423.78;;;27.55;39.87
75317;BME280;63913;51.492;10.368;2023-06-10T11:55:44;98420.41;;;27.70;39.14
75317;BME280;63913;51.492;10.368;2023-06-10T11:58:21;98420.53;;;27.86;39.01
75317;BME280;63913;51.492;10.368;2023-06-10T12:03:16;98418.59;;;28.06;38.38
75317;BME280;63913;51.492;10.368;2023-06-10T12:08:20;98424.41;;;28.32;38.36
75317;BME280;63913;51.492;10.368;2023-06-10T12:10:46;98413.28;;;28.25;36.74
75317;BME280;63913;51.492;10.368;2023-06-10T12:13:11;98428.22;;;28.26;37.51
75317;BME280;63913;51.492;10.368;2023-06-10T12:15:36;98417.41;;;28.31;37.59
75317;BME280;63913;51.492;10.368;2023-06-10T12:18:02;98422.69;;;28.31;37.98
75317;BME280;63913;51.492;10.368;2023-06-10T12:20:32;98424.09;;;28.38;39.22
75317;BME280;63913;51.492;10.368;2023-06-10T12:23:00;98424.72;;;28.43;38.03
75317;BME280;63913;51.492;10.368;2023-06-10T12:25:28;98420.91;;;28.48;36.24
75317;BME280;63913;51.492;10.368;2023-06-10T12:27:57;98426.13;;;28.50;35.44
75317;BME280;63913;51.492;10.368;2023-06-10T12:30:24;98425.97;;;28.53;35.35
75317;BME280;63913;51.492;10.368;2023-06-10T12:32:50;98424.53;;;28.63;35.21
75317;BME280;63913;51.492;10.368;2023-06-10T12:35:19;98423.53;;;28.66;35.72
75317;BME280;63913;51.492;10.368;2023-06-10T12:38:00;98420.03;;;28.65;35.11
75317;BME280;63913;51.492;10.368;2023-06-10T12:40:31;98425.94;;;28.70;34.98
75317;BME280;63913;51.492;10.368;2023-06-10T12:42:58;98415.16;;;28.58;35.41
75317;BME280;63913;51.492;10.368;2023-06-10T12:45:42;98412.97;;;28.66;34.56
75317;BME280;63913;51.492;10.368;2023-06-10T12:48:20;98417.78;;;28.75;35.16
75317;BME280;63913;51.492;10.368;2023-06-10T12:50:54;98416.63;;;28.46;34.10
75317;BME280;63913;51.492;10.368;2023-06-10T12:53:21;98417.78;;;28.58;35.77
75317;BME280;63913;51.492;10.368;2023-06-10T12:55:48;98412.81;;;28.69;35.54
75317;BME280;63913;51.492;10.368;2023-06-10T12:58:14;98400.31;;;28.71;35.14
75317;BME280;63913;51.492;10.368;2023-06-10T13:00:39;98409.72;;;28.78;35.57